Aérodrome :
LOGIN :

S'inscrire | Disclaimer

   EN    FR    IT 

 










Légende :    VFR   VFR Marginal   IFR   IFR Intensif   IFR Très Intensif
Visi : 
Plafond : 
>= 8 km
>= 3000ft
5 à 8 km
1000 à 3000 ft
1500m à 5 km
500 à 1000 ft
800 à 1500m
200 à 500 ft
< 800m
< 200 ft
Symboles :   Orages  Brouillard  Fortes neiges  Fortes précipitations  Vent > 20 kt
SIGMETs :   Divers  Orages  Givrage  Turbulence  Onde Orograph.  Cendres Volcan.






- Altitude de l'aérodrome : 622 ft
- Code IATA : BRS


EGGD - Bristol Int.

DERNIER METAR :
  • 122120Z AUTO 02011KT 9999 //////CB 21/18 Q1013

METARs EXPIRÉS :
  • 122050Z AUTO 07007KT 040V110 9999 //////CB 22/19 Q1013
  • 122020Z 07004KT 040V100 9999 VCTS -SHRA FEW033CB 23/18 Q1012 RETS RERA
  • 121950Z AUTO VRB06G22KT 3700 TSRA FEW030/// SCT049/// //////CB 22/19 Q1012
  • 121920Z AUTO 06011KT 9999 //////CB 25/17 Q1012
  • 121850Z AUTO 30004KT 230V350 9999 //////CB 28/19 Q1011

TAF TAF EGGD
Valide du 12 à 18h jusqu'au 13 à 18h UTC


121704Z 1218/1318 VRB05KT 9999 FEW045
TEMPO 1218/1224 VRB15G30KT 3000 +TSRAGR
TEMPO 1300/1312 6000
PROB30
TEMPO 1300/1312 3000 +TSRA BR BKN008
PROB40
TEMPO 1312/1318 VRB15G30KT 3000 +TSRAGR
ATIS : +44 1275 473 666



MET'MAP, la Météo Aéronautique d'un coup d'oeil ! - Copyright ORBIFLY Décembre 2007 - Disclaimer

ORBIFLY MET'MAP TEAM :

Programmation & Développement : Alexandra Zaïnal
Sur une idée originale de : Baudouin d'Aumeries
Assistance à la programmation : Marc-Olivier Méhu
Soutien technique & logistique : Manuel Goepfert

Contact : metmap@orbifly.com




SOURCES & CREDITS :

   NOAA